Terminal Aerodrome Forecast
Issued by NWS

Home | Current Version | Previous Version | Text Only | Print | Product List | Glossary On
Versions: 1 2 3 4 5 6 7 8 9 10 11 12 13 14 15 16
000
FTUS45 KVEF 012300
TAFBIH
TAF
KBIH 012333Z 0200/0224 16006KT P6SM VCSH FEW040 SCT070 BKN100
      TEMPO 0202/0206 -RA SCT050 BKN070
     FM020800 35006KT P6SM SCT080 BKN120
     FM021800 36006KT P6SM SCT080 BKN100=

USA.gov is the U.S. government's official web portal to all federal, state and local government web resources and services.